Time;durP1;ratioP1;P1;durP2;ratioP2;P2;SDS_P1;SDS_P2;PMS_P1;PMS_P2;Temp;Humidity;BMP_temperature;BMP_pressure;BME280_temperature;BME280_humidity;BME280_pressure;Samples;Min_cycle;Max_cycle;Signal;HPM_P1;HPM_P2
2021/11/18 00:01:52;;;;;;;135.55;104.50;;;21.90;51.60;;;;;;4737947;59;21021;-31
2021/11/18 00:06:53;;;;;;;140.40;106.97;;;21.90;51.60;;;;;;4738642;55;21528;-27
2021/11/18 00:11:55;;;;;;;143.10;109.47;;;21.90;51.60;;;;;;4741965;55;21054;-35
2021/11/18 00:16:56;;;;;;;134.70;103.43;;;21.90;51.60;;;;;;4745535;55;21608;-33
2021/11/18 00:21:56;;;;;;;137.07;105.90;;;21.90;51.60;;;;;;4737738;57;21230;-30
2021/11/18 00:26:57;;;;;;;135.55;104.12;;;21.80;51.60;;;;;;4746671;55;21002;-32
2021/11/18 00:31:58;;;;;;;130.93;104.32;;;21.90;51.50;;;;;;4738188;59;21053;-31
2021/11/18 00:36:59;;;;;;;130.68;99.75;;;21.90;51.50;;;;;;4740669;55;21037;-31
2021/11/18 00:42:00;;;;;;;129.87;101.25;;;21.80;51.50;;;;;;4738264;59;21499;-30
2021/11/18 00:47:01;;;;;;;130.77;101.35;;;21.80;51.40;;;;;;4748008;55;21444;-34
2021/11/18 00:52:02;;;;;;;127.85;99.50;;;21.80;51.50;;;;;;4762886;55;21478;-34
2021/11/18 00:57:03;;;;;;;128.30;100.47;;;21.80;51.40;;;;;;4748248;55;21014;-28
2021/11/18 01:02:04;;;;;;;125.93;99.13;;;21.80;51.40;;;;;;4770887;55;21467;-32
2021/11/18 01:07:05;;;;;;;128.82;99.93;;;21.80;51.30;;;;;;4749685;55;21236;-27
2021/11/18 01:12:08;;;;;;;124.62;97.22;;;21.80;51.40;;;;;;4749796;55;21556;-34
2021/11/18 01:17:10;;;;;;;127.82;97.10;;;21.80;51.30;;;;;;4748507;55;21030;-32
2021/11/18 01:22:12;;;;;;;121.55;95.60;;;21.80;51.30;;;;;;4738192;59;21496;-31
2021/11/18 01:27:13;;;;;;;120.87;94.07;;;21.80;51.20;;;;;;4760335;55;21476;-32
2021/11/18 01:32:14;;;;;;;123.05;95.50;;;21.80;51.20;;;;;;4743114;55;20998;-24
2021/11/18 01:37:15;;;;;;;123.03;96.12;;;21.80;51.20;;;;;;4759341;55;21516;-31
2021/11/18 01:42:16;;;;;;;124.68;95.95;;;21.80;51.20;;;;;;4741901;55;20978;-34
2021/11/18 01:47:17;;;;;;;123.93;95.18;;;21.80;51.20;;;;;;4744802;55;20994;-27
2021/11/18 01:52:25;;;;;;;118.95;92.28;;;21.80;51.20;;;;;;4744421;55;21058;-30
2021/11/18 01:57:29;;;;;;;122.82;94.25;;;21.80;51.10;;;;;;4757914;55;21033;-27
2021/11/18 02:02:30;;;;;;;119.55;92.72;;;21.80;51.20;;;;;;4755019;55;21042;-30
2021/11/18 02:07:31;;;;;;;113.20;87.80;;;21.80;51.10;;;;;;4781165;55;22067;-26
2021/11/18 02:12:33;;;;;;;118.10;91.80;;;21.80;51.20;;;;;;4783855;55;21009;-30
2021/11/18 02:17:34;;;;;;;116.00;91.95;;;21.80;51.10;;;;;;4770734;55;21081;-31
2021/11/18 02:22:35;;;;;;;116.80;89.15;;;21.80;51.10;;;;;;4759571;55;21101;-28
2021/11/18 02:27:36;;;;;;;113.25;90.00;;;21.80;51.10;;;;;;4738323;59;21135;-32
2021/11/18 02:32:40;;;;;;;119.05;91.50;;;21.80;51.10;;;;;;4743713;55;21074;-31
2021/11/18 02:37:42;;;;;;;114.50;90.40;;;21.80;51.00;;;;;;4761479;55;21018;-31
2021/11/18 02:42:43;;;;;;;113.47;88.57;;;21.80;50.90;;;;;;4810266;55;20998;-36
2021/11/18 02:47:45;;;;;;;113.37;86.78;;;21.80;51.00;;;;;;4759525;55;21122;-26
2021/11/18 02:52:47;;;;;;;111.53;87.62;;;21.80;50.90;;;;;;4759696;55;21006;-32
2021/11/18 02:57:48;;;;;;;114.20;88.22;;;21.80;50.90;;;;;;4768203;55;21556;-26
2021/11/18 03:02:49;;;;;;;112.88;88.18;;;21.80;50.90;;;;;;4745601;55;21078;-28
2021/11/18 03:07:51;;;;;;;115.88;89.97;;;21.80;50.90;;;;;;4764459;55;21093;-31
2021/11/18 03:12:53;;;;;;;112.55;89.03;;;21.80;50.90;;;;;;4744271;55;21010;-31
2021/11/18 03:17:54;;;;;;;113.90;87.47;;;21.80;50.80;;;;;;4738319;59;21519;-30
2021/11/18 03:22:55;;;;;;;113.62;86.95;;;21.80;50.90;;;;;;4742876;55;21157;-34
2021/11/18 03:27:56;;;;;;;108.25;85.53;;;21.80;50.90;;;;;;4747799;55;20986;-32
2021/11/18 03:32:59;;;;;;;107.12;84.10;;;21.80;50.80;;;;;;4742971;55;21524;-33
2021/11/18 03:38:00;;;;;;;105.87;82.95;;;21.80;50.80;;;;;;4738001;59;21121;-33
2021/11/18 03:43:05;;;;;;;109.43;84.47;;;21.80;50.80;;;;;;4738075;56;21026;-29
2021/11/18 03:48:07;;;;;;;102.03;79.15;;;21.70;50.80;;;;;;4737650;59;21550;-26
2021/11/18 03:53:08;;;;;;;103.32;82.15;;;21.80;50.80;;;;;;4737945;59;21010;-30
2021/11/18 03:58:09;;;;;;;106.50;84.37;;;21.80;50.80;;;;;;4758857;55;21026;-33
2021/11/18 04:03:12;;;;;;;105.22;83.37;;;21.70;50.70;;;;;;4758294;55;21543;-31
2021/11/18 04:08:13;;;;;;;99.40;78.87;;;21.70;50.70;;;;;;4757350;55;21989;-19
2021/11/18 04:13:14;;;;;;;103.45;81.63;;;21.70;50.70;;;;;;4756950;55;21100;-28
2021/11/18 04:18:17;;;;;;;101.55;81.72;;;21.80;50.70;;;;;;4800508;55;20986;-33
2021/11/18 04:23:21;;;;;;;100.53;79.40;;;21.70;50.70;;;;;;4761224;55;21590;-32
2021/11/18 04:28:23;;;;;;;96.63;77.20;;;21.80;50.70;;;;;;4760052;55;21017;-31
2021/11/18 04:33:25;;;;;;;97.53;78.85;;;21.80;50.60;;;;;;4741693;55;21030;-29
2021/11/18 04:38:26;;;;;;;93.72;75.03;;;21.80;50.60;;;;;;4757655;55;20998;-27
2021/11/18 04:43:29;;;;;;;98.18;77.03;;;21.70;50.50;;;;;;4788332;55;21073;-31
2021/11/18 04:48:30;;;;;;;90.22;71.20;;;21.70;50.60;;;;;;4742662;55;21118;-32
2021/11/18 04:53:31;;;;;;;96.70;76.07;;;21.70;50.60;;;;;;4767827;55;21502;-35
2021/11/18 04:58:33;;;;;;;94.40;74.20;;;21.70;50.50;;;;;;4757675;55;21010;-22
2021/11/18 05:03:34;;;;;;;94.95;75.95;;;21.70;50.50;;;;;;4742488;55;21018;-34
2021/11/18 05:08:35;;;;;;;93.07;72.97;;;21.70;50.60;;;;;;4737452;59;21170;-31
2021/11/18 05:13:38;;;;;;;93.18;74.22;;;21.70;50.50;;;;;;4768125;55;21098;-23
2021/11/18 05:18:42;;;;;;;90.85;72.28;;;21.70;50.60;;;;;;4748628;55;21183;-34
2021/11/18 05:23:43;;;;;;;90.30;72.12;;;21.70;50.60;;;;;;4758434;55;21005;-29
2021/11/18 05:28:44;;;;;;;87.62;70.78;;;21.70;50.50;;;;;;4770973;55;21037;-30
2021/11/18 05:33:47;;;;;;;90.38;71.90;;;21.70;50.50;;;;;;4752214;55;21002;-30
2021/11/18 05:38:49;;;;;;;90.43;71.03;;;21.70;50.50;;;;;;4782715;55;21062;-30
2021/11/18 05:43:50;;;;;;;88.45;70.62;;;21.70;50.50;;;;;;4738687;56;21129;-32
2021/11/18 05:48:51;;;;;;;88.37;70.37;;;21.70;50.60;;;;;;4761729;55;21112;-28
2021/11/18 05:53:52;;;;;;;88.15;70.55;;;21.70;50.70;;;;;;4782600;55;21654;-34
2021/11/18 05:58:53;;;;;;;92.62;70.18;;;21.70;50.70;;;;;;4749506;55;21749;-32
2021/11/18 06:03:55;;;;;;;84.60;67.45;;;21.70;50.70;;;;;;4773960;55;21006;-32
2021/11/18 06:09:02;;;;;;;88.75;69.75;;;21.70;50.90;;;;;;4738560;55;21042;-27
2021/11/18 06:14:04;;;;;;;85.62;68.43;;;21.70;50.80;;;;;;4780205;55;21595;-30
2021/11/18 06:19:05;;;;;;;83.53;66.45;;;21.70;50.80;;;;;;4744136;55;21042;-31
2021/11/18 06:24:07;;;;;;;85.55;66.90;;;21.70;50.90;;;;;;4770362;55;20990;-32
2021/11/18 06:29:09;;;;;;;82.57;66.50;;;21.70;50.80;;;;;;4768666;55;20990;-32
2021/11/18 06:34:09;;;;;;;82.43;63.38;;;21.70;50.90;;;;;;4756240;55;21022;-35
2021/11/18 06:39:12;;;;;;;78.85;64.03;;;21.70;50.90;;;;;;4754116;55;20998;-29
2021/11/18 06:44:14;;;;;;;80.85;64.65;;;21.70;50.90;;;;;;4829102;55;21002;-29
2021/11/18 06:49:15;;;;;;;78.60;63.38;;;21.70;50.90;;;;;;4764891;55;21037;-24
2021/11/18 06:54:17;;;;;;;80.25;62.85;;;21.70;50.90;;;;;;4771461;55;21567;-29
2021/11/18 06:59:18;;;;;;;77.40;62.42;;;21.70;50.90;;;;;;4738222;59;21053;-30
2021/11/18 07:04:19;;;;;;;75.85;59.95;;;21.70;51.00;;;;;;4763597;55;21500;-33
2021/11/18 07:09:20;;;;;;;77.35;62.67;;;21.70;50.80;;;;;;4738755;59;21010;-29
2021/11/18 07:14:21;;;;;;;74.20;61.25;;;21.70;50.80;;;;;;4737475;55;21157;-33
2021/11/18 07:19:22;;;;;;;79.32;62.80;;;21.70;50.90;;;;;;4738335;55;21483;-29
2021/11/18 07:24:22;;;;;;;73.50;59.72;;;21.70;50.80;;;;;;4738202;59;21555;-31
2021/11/18 07:29:23;;;;;;;72.65;58.42;;;21.70;50.80;;;;;;4738687;55;20998;-34
2021/11/18 07:34:25;;;;;;;72.93;60.00;;;21.70;50.80;;;;;;4778922;55;20993;-34
2021/11/18 07:39:26;;;;;;;76.80;60.90;;;21.70;50.80;;;;;;4771728;55;21053;-31
2021/11/18 07:44:27;;;;;;;75.03;59.88;;;21.70;50.70;;;;;;4786183;55;21523;-32
2021/11/18 07:49:28;;;;;;;75.28;60.63;;;21.70;50.70;;;;;;4740001;55;21001;-28
2021/11/18 07:54:29;;;;;;;74.35;58.47;;;21.70;50.70;;;;;;4747668;55;21452;-27
2021/11/18 07:59:30;;;;;;;73.70;58.65;;;21.70;50.70;;;;;;4761322;55;21076;-33
2021/11/18 08:04:31;;;;;;;74.68;59.53;;;21.70;50.60;;;;;;4750625;55;21512;-32
2021/11/18 08:09:32;;;;;;;76.53;60.33;;;21.70;50.60;;;;;;4741495;55;21033;-33
2021/11/18 08:14:34;;;;;;;76.47;61.00;;;21.70;50.60;;;;;;4739185;55;21038;-32
2021/11/18 08:19:35;;;;;;;76.18;60.53;;;21.70;50.80;;;;;;4750323;55;21369;-30
2021/11/18 08:24:36;;;;;;;72.47;60.03;;;21.70;50.90;;;;;;4754617;55;20998;-31
2021/11/18 08:29:37;;;;;;;78.05;62.47;;;21.80;51.10;;;;;;4739221;55;21452;-28
2021/11/18 08:34:38;;;;;;;74.72;59.60;;;21.80;51.20;;;;;;4737907;55;20998;-27
2021/11/18 08:39:40;;;;;;;73.45;59.13;;;21.80;51.30;;;;;;4740316;55;21461;-30
2021/11/18 08:44:41;;;;;;;77.25;62.20;;;21.90;51.50;;;;;;4761988;55;21538;-26
2021/11/18 08:49:42;;;;;;;76.68;60.67;;;21.90;51.50;;;;;;4738987;55;21548;-29
2021/11/18 08:54:49;;;;;;;77.18;62.53;;;22.00;51.60;;;;;;4743992;55;21002;-26
2021/11/18 08:59:50;;;;;;;77.75;61.70;;;22.00;51.80;;;;;;4753439;55;21089;-29
2021/11/18 09:04:52;;;;;;;81.65;64.97;;;22.00;51.80;;;;;;4743313;55;21058;-19
2021/11/18 09:09:52;;;;;;;82.15;65.68;;;22.00;51.90;;;;;;4760562;55;21809;-32
2021/11/18 09:14:54;;;;;;;84.62;66.97;;;22.10;52.00;;;;;;4751513;55;21022;-26
2021/11/18 09:19:55;;;;;;;88.45;68.57;;;22.00;52.00;;;;;;4760572;55;21009;-32
2021/11/18 09:24:59;;;;;;;93.10;74.12;;;22.10;52.30;;;;;;4755236;55;21017;-29
2021/11/18 09:30:03;;;;;;;90.47;73.50;;;22.20;52.20;;;;;;4769942;55;21034;-29
2021/11/18 09:35:09;;;;;;;94.70;76.05;;;22.20;52.30;;;;;;4737218;55;21034;-30
2021/11/18 09:40:16;;;;;;;94.43;76.37;;;22.20;52.40;;;;;;4746483;55;21002;-34
2021/11/18 09:45:28;;;;;;;93.33;74.27;;;22.20;52.40;;;;;;4765016;55;21581;-29
2021/11/18 09:51:03;;;;;;;95.55;75.95;;;22.20;52.40;;;;;;4737527;59;21105;-31
2021/11/18 09:56:26;;;;;;;98.53;77.93;;;22.20;52.50;;;;;;4742352;55;21018;-28
2021/11/18 10:03:01;;;;;;;99.62;79.47;;;22.20;52.60;;;;;;4768061;55;21474;-24
2021/11/18 10:08:10;;;;;;;99.93;81.78;;;22.30;52.90;;;;;;4742426;55;21585;-27
2021/11/18 10:20:19;;;;;;;103.78;82.25;;;22.30;53.00;;;;;;4757015;55;21012;-28
2021/11/18 10:25:26;;;;;;;103.68;84.13;;;22.40;53.40;;;;;;4746098;55;21531;-34
2021/11/18 10:30:50;;;;;;;104.27;81.17;;;22.40;53.50;;;;;;4748587;55;21005;-34
2021/11/18 10:36:22;;;;;;;105.95;84.62;;;22.40;53.70;;;;;;4739371;55;21328;-29
2021/11/18 10:41:27;;;;;;;102.90;83.22;;;22.40;53.80;;;;;;4775634;55;20981;-26
2021/11/18 10:46:36;;;;;;;109.97;86.95;;;22.50;54.00;;;;;;4784552;55;21014;-28
2021/11/18 10:51:41;;;;;;;110.05;85.60;;;22.50;54.10;;;;;;4738764;55;20986;-30
2021/11/18 10:57:02;;;;;;;110.90;88.80;;;22.50;54.80;;;;;;4758294;55;21041;-27
2021/11/18 11:02:25;;;;;;;110.68;90.68;;;22.50;54.40;;;;;;4749380;55;21081;-27
2021/11/18 11:07:39;;;;;;;114.40;92.43;;;22.60;54.40;;;;;;4743037;55;21503;-27
2021/11/18 11:13:11;;;;;;;115.85;94.87;;;22.60;54.40;;;;;;4743105;55;21073;-23
2021/11/18 11:20:06;;;;;;;116.93;93.78;;;22.60;54.40;;;;;;4754571;55;21121;-28
2021/11/18 11:25:20;;;;;;;123.73;96.73;;;22.60;54.40;;;;;;4749071;55;21033;-35
2021/11/18 11:32:45;;;;;;;122.00;98.22;;;22.60;54.60;;;;;;4737812;59;21042;-29
2021/11/18 11:44:54;;;;;;;140.88;111.85;;;22.50;54.40;;;;;;4749421;55;21523;-26
2021/11/18 11:53:56;;;;;;;143.80;115.22;;;22.50;54.10;;;;;;4738414;55;21093;-35
2021/11/18 11:59:44;;;;;;;146.00;117.25;;;22.50;54.10;;;;;;4792388;55;21081;-31
2021/11/18 12:04:55;;;;;;;151.32;119.65;;;22.50;54.30;;;;;;4772261;55;21163;-25
2021/11/18 12:13:39;;;;;;;143.62;114.93;;;22.50;54.60;;;;;;4747361;55;21010;-27
2021/11/18 12:18:53;;;;;;;142.05;114.18;;;22.60;54.80;;;;;;4754253;55;21747;-26
2021/11/18 12:24:10;;;;;;;144.27;116.55;;;22.60;54.80;;;;;;4771459;55;21519;-25
2021/11/18 12:29:47;;;;;;;141.00;113.68;;;22.60;55.00;;;;;;4753195;55;21598;-29
2021/11/18 12:36:05;;;;;;;139.60;113.18;;;22.60;55.20;;;;;;4762913;55;21066;-26
2021/11/18 12:42:43;;;;;;;157.60;122.13;;;22.70;55.30;;;;;;4756752;55;21461;-31
2021/11/18 12:49:03;;;;;;;151.90;121.50;;;22.70;55.10;;;;;;4796146;55;22254;-30
2021/11/18 12:55:22;;;;;;;150.00;122.55;;;22.70;55.00;;;;;;4737511;55;22022;-30
2021/11/18 13:00:45;;;;;;;150.65;122.37;;;22.60;54.70;;;;;;4761089;55;21021;-36
2021/11/18 13:05:50;;;;;;;150.38;120.45;;;22.60;55.20;;;;;;4742585;55;21030;-29
2021/11/18 13:10:53;;;;;;;148.25;119.72;;;22.60;54.50;;;;;;4741566;55;21121;-28
2021/11/18 13:17:35;;;;;;;157.60;124.70;;;22.60;54.40;;;;;;4753717;55;21528;-32
2021/11/18 13:22:47;;;;;;;160.60;122.10;;;22.60;54.60;;;;;;4789113;55;21049;-30
2021/11/18 13:28:14;;;;;;;160.40;126.00;;;22.70;54.60;;;;;;4745536;55;20994;-32
2021/11/18 13:33:34;;;;;;;156.00;125.00;;;22.70;54.80;;;;;;4747945;55;21010;-29
2021/11/18 13:38:54;;;;;;;158.75;121.87;;;22.70;54.90;;;;;;4767486;55;21479;-28
2021/11/18 13:43:59;;;;;;;154.18;123.75;;;22.70;55.00;;;;;;4740788;55;21525;-27
2021/11/18 13:49:47;;;;;;;152.98;123.55;;;22.70;55.20;;;;;;4747548;55;21472;-27
2021/11/18 13:55:00;;;;;;;156.55;122.95;;;22.80;55.40;;;;;;4743378;55;21066;-26
2021/11/18 14:00:13;;;;;;;155.82;128.57;;;22.70;55.40;;;;;;4770083;55;20989;-27
2021/11/18 14:05:26;;;;;;;159.43;127.90;;;22.80;55.50;;;;;;4743702;55;21014;-27
2021/11/18 14:10:39;;;;;;;164.88;129.27;;;22.80;55.60;;;;;;4738003;55;21374;-30
2021/11/18 14:19:18;;;;;;;161.77;128.38;;;22.80;55.70;;;;;;4738761;55;21073;-26
2021/11/18 14:24:42;;;;;;;159.50;123.93;;;22.80;55.90;;;;;;4737462;55;21050;-33
2021/11/18 14:29:54;;;;;;;162.12;127.22;;;22.80;55.90;;;;;;4767195;55;21456;-29
2021/11/18 14:35:38;;;;;;;157.80;127.53;;;22.80;56.00;;;;;;4754845;55;20962;-28
2021/11/18 14:41:06;;;;;;;162.02;125.70;;;22.90;56.30;;;;;;4737619;55;21026;-31
2021/11/18 14:49:47;;;;;;;158.37;127.05;;;22.90;56.20;;;;;;4738314;55;20986;-31
2021/11/18 14:55:06;;;;;;;160.73;126.10;;;22.90;56.40;;;;;;4737105;59;21495;-27
2021/11/18 15:00:09;;;;;;;158.30;130.05;;;22.90;56.40;;;;;;4786601;55;21022;-31
2021/11/18 15:05:09;;;;;;;162.48;127.90;;;22.90;56.50;;;;;;4767312;55;21018;-31
2021/11/18 15:10:15;;;;;;;155.93;127.47;;;23.00;56.20;;;;;;4737949;59;21472;-28
2021/11/18 15:15:21;;;;;;;166.50;132.80;;;22.90;56.30;;;;;;4764363;55;21061;-26
2021/11/18 15:20:25;;;;;;;158.85;129.43;;;22.90;56.10;;;;;;4753137;55;21066;-30
2021/11/18 15:25:28;;;;;;;161.70;131.60;;;22.90;56.10;;;;;;4752259;55;21102;-31
2021/11/18 15:30:39;;;;;;;169.05;131.25;;;22.90;56.00;;;;;;4756879;55;21113;-32
2021/11/18 15:35:40;;;;;;;163.52;128.62;;;22.80;55.90;;;;;;4753668;55;21037;-29
2021/11/18 15:40:44;;;;;;;162.73;131.85;;;22.80;55.80;;;;;;4749791;55;21057;-28
2021/11/18 15:45:46;;;;;;;163.55;129.60;;;22.80;55.60;;;;;;4738436;59;22375;-26
2021/11/18 15:50:52;;;;;;;205.35;159.32;;;22.80;55.40;;;;;;4744578;55;21046;-25
2021/11/18 15:55:57;;;;;;;219.00;171.32;;;22.70;51.60;;;;;;4752147;55;21570;-34
2021/11/18 16:01:00;;;;;;;222.12;176.70;;;22.60;49.50;;;;;;4740437;55;21002;-27
2021/11/18 16:06:02;;;;;;;214.50;167.70;;;22.50;49.80;;;;;;4762094;55;21023;-26
2021/11/18 16:11:26;;;;;;;200.38;155.57;;;22.50;50.70;;;;;;4771874;55;20998;-31
2021/11/18 16:16:30;;;;;;;200.75;157.85;;;22.50;50.70;;;;;;4750213;55;21488;-31
2021/11/18 16:21:34;;;;;;;199.87;161.05;;;22.50;50.90;;;;;;4743877;55;21473;-31
2021/11/18 16:26:36;;;;;;;198.07;153.32;;;22.50;51.00;;;;;;4753760;55;21105;-33
2021/11/18 16:31:37;;;;;;;194.48;152.87;;;22.40;51.00;;;;;;4740314;55;21009;-30
2021/11/18 16:36:39;;;;;;;197.02;154.75;;;22.40;51.20;;;;;;4752382;55;21651;-33
2021/11/18 16:41:43;;;;;;;196.80;153.23;;;22.40;51.30;;;;;;4803386;55;21107;-26
2021/11/18 16:46:46;;;;;;;200.38;154.10;;;22.30;51.30;;;;;;4759140;55;21078;-27
2021/11/18 16:52:02;;;;;;;191.32;150.05;;;22.30;51.40;;;;;;4737687;59;21049;-31
2021/11/18 16:57:04;;;;;;;191.07;150.07;;;22.30;51.50;;;;;;4751043;55;20990;-31
2021/11/18 17:02:10;;;;;;;184.90;145.65;;;22.30;51.60;;;;;;4780653;55;21022;-31
2021/11/18 17:07:12;;;;;;;186.90;148.35;;;22.30;51.50;;;;;;4758061;55;21030;-32
2021/11/18 17:12:15;;;;;;;182.90;143.85;;;22.20;51.40;;;;;;4755693;55;20994;-36
2021/11/18 17:17:18;;;;;;;188.00;147.57;;;22.20;51.50;;;;;;4766022;55;21143;-32
2021/11/18 17:22:26;;;;;;;182.80;145.30;;;22.20;51.50;;;;;;4743323;55;20995;-27
2021/11/18 17:27:28;;;;;;;188.75;146.20;;;22.20;51.50;;;;;;4761892;55;21591;-27
2021/11/18 17:32:30;;;;;;;185.95;145.73;;;22.20;51.50;;;;;;4752736;55;21081;-30
2021/11/18 17:37:32;;;;;;;183.55;144.52;;;22.20;51.60;;;;;;4766828;55;21110;-31
2021/11/18 17:42:34;;;;;;;181.40;143.48;;;22.20;51.60;;;;;;4737874;59;21014;-31
2021/11/18 17:47:36;;;;;;;182.50;145.35;;;22.20;51.70;;;;;;4754830;55;21006;-33
2021/11/18 17:52:38;;;;;;;185.88;147.40;;;22.20;51.60;;;;;;4767888;55;21053;-32
2021/11/18 17:57:40;;;;;;;186.70;144.15;;;22.20;51.60;;;;;;4751860;55;21091;-34
2021/11/18 18:02:41;;;;;;;183.23;148.27;;;22.10;51.60;;;;;;4773101;55;21078;-28
2021/11/18 18:07:42;;;;;;;183.30;146.40;;;22.20;51.60;;;;;;4746233;55;21492;-31
2021/11/18 18:12:44;;;;;;;184.02;147.23;;;22.10;51.50;;;;;;4745934;55;21076;-34
2021/11/18 18:17:46;;;;;;;181.10;144.95;;;22.10;51.50;;;;;;4736692;59;20990;-34
2021/11/18 18:22:47;;;;;;;179.18;142.25;;;22.10;51.50;;;;;;4742811;55;21018;-32
2021/11/18 18:27:49;;;;;;;177.90;142.18;;;22.10;51.50;;;;;;4770599;55;21535;-29
2021/11/18 18:32:51;;;;;;;180.20;143.18;;;22.10;51.50;;;;;;4742025;55;21639;-31
2021/11/18 18:37:53;;;;;;;182.05;144.43;;;22.10;51.50;;;;;;4752203;55;21038;-29
2021/11/18 18:42:54;;;;;;;174.57;139.10;;;22.10;51.50;;;;;;4766839;55;21093;-28
2021/11/18 18:47:55;;;;;;;176.85;142.77;;;22.00;51.40;;;;;;4748030;55;21018;-28
2021/11/18 18:52:56;;;;;;;182.05;145.32;;;22.00;51.40;;;;;;4739543;55;20990;-28
2021/11/18 18:57:58;;;;;;;181.05;142.05;;;22.10;51.50;;;;;;4739190;55;21141;-25
2021/11/18 19:02:59;;;;;;;184.32;145.35;;;22.10;51.40;;;;;;4773049;55;21121;-31
2021/11/18 19:08:00;;;;;;;178.98;137.82;;;22.10;51.50;;;;;;4749515;55;21090;-30
2021/11/18 19:13:01;;;;;;;180.63;144.65;;;22.10;51.50;;;;;;4738033;59;21543;-30
2021/11/18 19:18:03;;;;;;;176.48;142.70;;;22.00;51.30;;;;;;4790340;55;21045;-30
2021/11/18 19:23:06;;;;;;;179.98;145.70;;;22.10;51.40;;;;;;4749309;55;21006;-27
2021/11/18 19:28:26;;;;;;;178.12;142.27;;;22.00;51.30;;;;;;4789070;55;21021;-28
2021/11/18 19:33:28;;;;;;;181.20;142.90;;;22.10;51.40;;;;;;4744460;55;22015;-31
2021/11/18 19:38:31;;;;;;;182.73;144.57;;;22.00;51.30;;;;;;4754704;55;21214;-29
2021/11/18 19:43:33;;;;;;;181.57;144.13;;;22.00;51.30;;;;;;4750728;55;21045;-28
2021/11/18 19:48:36;;;;;;;181.98;143.70;;;22.00;51.30;;;;;;4754955;55;21063;-32
2021/11/18 19:53:38;;;;;;;190.98;146.55;;;22.00;51.30;;;;;;4746586;55;21535;-28
2021/11/18 19:58:40;;;;;;;180.75;144.07;;;22.00;51.30;;;;;;4754857;55;21065;-31
2021/11/18 20:03:45;;;;;;;180.32;142.27;;;22.00;51.30;;;;;;4741746;55;21086;-28
2021/11/18 20:08:47;;;;;;;179.80;141.57;;;22.00;51.20;;;;;;4747825;55;21001;-33
2021/11/18 20:13:53;;;;;;;174.25;137.68;;;22.00;51.20;;;;;;4767784;55;22011;-34
2021/11/18 20:18:55;;;;;;;180.23;141.50;;;22.00;51.20;;;;;;4741380;55;21073;-29
2021/11/18 20:23:57;;;;;;;187.30;142.10;;;22.00;51.20;;;;;;4738406;59;20998;-33
2021/11/18 20:28:59;;;;;;;173.98;139.73;;;22.00;51.20;;;;;;4746046;55;21025;-29
2021/11/18 20:34:03;;;;;;;176.60;141.65;;;22.00;51.10;;;;;;4750174;55;21509;-31
2021/11/18 20:39:07;;;;;;;173.77;137.27;;;22.00;51.10;;;;;;4744651;55;21141;-28
2021/11/18 20:44:24;;;;;;;181.30;141.82;;;22.00;51.20;;;;;;4738210;55;21050;-26
2021/11/18 20:49:26;;;;;;;178.70;140.88;;;22.00;51.10;;;;;;4785014;55;21014;-28
2021/11/18 20:54:29;;;;;;;179.68;141.00;;;22.00;51.00;;;;;;4747951;55;21504;-30
2021/11/18 20:59:30;;;;;;;173.48;137.70;;;22.00;50.90;;;;;;4737739;59;22045;-30
2021/11/18 21:04:36;;;;;;;183.32;142.75;;;22.00;51.00;;;;;;4756649;55;22115;-30
2021/11/18 21:09:38;;;;;;;180.37;138.62;;;22.00;51.00;;;;;;4748567;55;21002;-27
2021/11/18 21:14:41;;;;;;;181.12;140.45;;;22.00;50.90;;;;;;4817707;55;21548;-31
2021/11/18 21:19:42;;;;;;;176.68;137.45;;;22.00;50.90;;;;;;4753089;55;21022;-29
2021/11/18 21:24:43;;;;;;;180.73;139.80;;;21.90;50.80;;;;;;4756575;55;21002;-28
2021/11/18 21:29:49;;;;;;;178.43;137.27;;;21.90;50.90;;;;;;4738192;59;21507;-31
2021/11/18 21:34:51;;;;;;;179.77;139.12;;;21.90;50.80;;;;;;4761197;55;21121;-27
2021/11/18 21:40:07;;;;;;;174.45;136.05;;;21.90;51.20;;;;;;4737135;59;21078;-28
2021/11/18 21:45:10;;;;;;;177.43;138.77;;;21.90;50.80;;;;;;4745755;55;20986;-29
2021/11/18 21:50:15;;;;;;;173.35;134.55;;;21.90;50.70;;;;;;4822469;55;21018;-27
2021/11/18 21:55:29;;;;;;;174.60;135.35;;;21.90;50.80;;;;;;4752690;55;21042;-23
2021/11/18 22:01:35;;;;;;;173.73;134.12;;;21.90;50.60;;;;;;4738176;55;21468;-29
2021/11/18 22:06:49;;;;;;;173.23;134.50;;;21.90;50.60;;;;;;4754486;55;22512;-31
2021/11/18 22:11:51;;;;;;;174.52;135.55;;;21.90;50.60;;;;;;4748441;55;20994;-31
2021/11/18 22:16:54;;;;;;;173.43;134.90;;;21.90;50.60;;;;;;4761016;55;21105;-35
2021/11/18 22:21:57;;;;;;;169.87;133.82;;;21.90;50.60;;;;;;4773688;55;22085;-31
2021/11/18 22:26:58;;;;;;;167.95;130.73;;;21.90;50.60;;;;;;4763752;55;21551;-31
2021/11/18 22:32:01;;;;;;;166.90;131.07;;;21.90;50.60;;;;;;4752892;55;21014;-30
2021/11/18 22:37:06;;;;;;;172.80;133.18;;;21.90;50.60;;;;;;4767385;55;21627;-31
2021/11/18 22:42:07;;;;;;;167.68;128.55;;;21.90;50.60;;;;;;4737552;59;21074;-23
2021/11/18 22:47:08;;;;;;;168.77;132.32;;;21.90;50.40;;;;;;4794070;55;21057;-31
2021/11/18 22:52:12;;;;;;;170.38;129.87;;;21.90;50.50;;;;;;4789413;55;21021;-28
2021/11/18 22:57:14;;;;;;;164.77;126.68;;;21.90;50.40;;;;;;4789417;55;21046;-27
2021/11/18 23:02:23;;;;;;;161.25;123.35;;;21.90;50.20;;;;;;4739277;55;21127;-30
2021/11/18 23:07:25;;;;;;;163.95;126.28;;;21.90;50.40;;;;;;4748231;55;21607;-32
2021/11/18 23:12:26;;;;;;;163.52;127.30;;;21.90;50.20;;;;;;4738079;59;21002;-32
2021/11/18 23:17:27;;;;;;;159.82;125.78;;;21.90;50.20;;;;;;4737201;59;21560;-30
2021/11/18 23:22:35;;;;;;;169.00;129.10;;;21.90;50.10;;;;;;4744349;55;21002;-27
2021/11/18 23:27:38;;;;;;;164.90;128.07;;;21.90;50.10;;;;;;4745372;55;20974;-28
2021/11/18 23:32:40;;;;;;;160.00;125.25;;;21.90;50.00;;;;;;4763095;55;21475;-28
2021/11/18 23:37:42;;;;;;;162.75;125.80;;;21.90;50.00;;;;;;4752668;55;21014;-29
2021/11/18 23:42:44;;;;;;;164.00;124.82;;;21.90;50.00;;;;;;4769564;55;21070;-27
2021/11/18 23:47:46;;;;;;;167.30;125.80;;;21.90;49.90;;;;;;4759093;55;21022;-27
2021/11/18 23:52:47;;;;;;;161.93;124.00;;;21.80;49.90;;;;;;4755924;55;21025;-31
2021/11/18 23:57:56;;;;;;;159.50;123.38;;;21.90;49.80;;;;;;4831463;55;21187;-30
